Time;durP1;ratioP1;P1;durP2;ratioP2;P2;SDS_P1;SDS_P2;PMS_P1;PMS_P2;Temp;Humidity;BMP_temperature;BMP_pressure;BME280_temperature;BME280_humidity;BME280_pressure;Samples;Min_cycle;Max_cycle;Signal;HPM_P1;HPM_P2
2022/07/07 00:00:15;;;;;;;12.55;5.75;;;17.10;99.90;;;;;;5093939;27;38467;-55
2022/07/07 00:02:43;;;;;;;10.75;4.60;;;17.10;99.90;;;;;;5093159;27;37971;-55
2022/07/07 00:05:10;;;;;;;11.70;4.88;;;17.20;99.90;;;;;;5095417;27;37247;-55
2022/07/07 00:07:38;;;;;;;10.57;4.68;;;17.10;99.90;;;;;;5094572;27;37523;-55
2022/07/07 00:10:07;;;;;;;10.25;4.70;;;17.10;99.90;;;;;;5096075;27;39010;-56
2022/07/07 00:12:34;;;;;;;9.13;4.15;;;17.10;99.90;;;;;;5094727;27;36436;-55
2022/07/07 00:15:02;;;;;;;10.10;4.45;;;17.10;99.90;;;;;;5093144;27;35676;-56
2022/07/07 00:17:31;;;;;;;8.15;4.32;;;17.10;99.90;;;;;;5095156;27;35897;-56
2022/07/07 00:19:58;;;;;;;8.60;4.25;;;17.10;99.90;;;;;;5093743;27;37534;-56
2022/07/07 00:22:26;;;;;;;8.90;3.65;;;17.10;99.90;;;;;;5094469;27;37157;-56
2022/07/07 00:24:53;;;;;;;8.00;3.75;;;17.10;99.90;;;;;;5093427;27;37429;-55
2022/07/07 00:27:20;;;;;;;8.15;3.55;;;17.10;99.90;;;;;;5093383;27;36693;-56
2022/07/07 00:29:48;;;;;;;12.05;3.92;;;17.10;99.90;;;;;;5094362;27;37349;-55
2022/07/07 00:32:15;;;;;;;6.55;3.10;;;17.10;99.90;;;;;;5094099;27;37181;-56
2022/07/07 00:34:44;;;;;;;6.88;3.65;;;17.10;99.90;;;;;;5094836;27;36458;-56
2022/07/07 00:37:11;;;;;;;9.77;4.10;;;17.10;99.90;;;;;;5093594;27;34877;-55
2022/07/07 00:39:39;;;;;;;12.10;4.28;;;17.10;99.90;;;;;;5091491;27;38814;-55
2022/07/07 00:42:06;;;;;;;11.38;3.17;;;17.10;99.90;;;;;;5092859;27;38036;-54
2022/07/07 00:44:33;;;;;;;10.85;3.65;;;17.10;99.90;;;;;;5094473;27;38229;-56
2022/07/07 00:47:01;;;;;;;7.43;3.00;;;17.00;99.90;;;;;;5093293;27;36935;-56
2022/07/07 00:49:28;;;;;;;8.70;3.20;;;17.00;99.90;;;;;;5094696;27;39093;-56
2022/07/07 00:51:57;;;;;;;7.20;3.35;;;17.00;99.90;;;;;;5092803;27;37268;-56
2022/07/07 00:54:25;;;;;;;7.72;3.70;;;17.00;99.90;;;;;;5091854;27;37112;-56
2022/07/07 00:56:52;;;;;;;6.63;2.63;;;17.00;99.90;;;;;;5093420;27;36717;-55
2022/07/07 00:59:19;;;;;;;9.80;2.60;;;17.00;99.90;;;;;;5094431;27;36445;-56
2022/07/07 01:01:47;;;;;;;6.75;2.40;;;16.90;99.90;;;;;;5092860;27;36580;-56
2022/07/07 01:04:14;;;;;;;7.38;2.53;;;16.90;99.90;;;;;;5094547;27;37526;-56
2022/07/07 01:06:42;;;;;;;7.80;2.30;;;16.90;99.90;;;;;;5091770;27;35190;-56
2022/07/07 01:09:10;;;;;;;7.00;2.22;;;16.80;99.90;;;;;;5094445;27;39037;-55
2022/07/07 01:11:49;;;;;;;5.82;2.10;;;16.80;99.90;;;;;;5093423;27;37004;-55
2022/07/07 01:14:17;;;;;;;8.20;2.33;;;16.80;99.90;;;;;;5092827;27;35432;-56
2022/07/07 01:16:45;;;;;;;6.47;2.40;;;16.80;99.90;;;;;;5093165;27;36460;-56
2022/07/07 01:19:12;;;;;;;7.28;2.30;;;16.80;99.90;;;;;;5093161;27;40083;-56
2022/07/07 01:21:50;;;;;;;7.53;2.42;;;16.80;99.90;;;;;;5092447;27;37863;-55
2022/07/07 01:24:19;;;;;;;6.88;2.20;;;16.80;99.90;;;;;;5092906;27;37058;-56
2022/07/07 01:26:46;;;;;;;7.25;2.22;;;16.80;99.90;;;;;;5092667;27;36752;-55
2022/07/07 01:29:13;;;;;;;7.82;2.45;;;16.80;99.90;;;;;;5092069;27;38210;-55
2022/07/07 01:31:41;;;;;;;6.88;2.22;;;16.80;99.90;;;;;;5091220;27;37007;-56
2022/07/07 01:34:08;;;;;;;6.90;2.15;;;16.80;99.90;;;;;;5092445;27;37544;-55
2022/07/07 01:36:36;;;;;;;7.88;2.35;;;16.70;99.90;;;;;;5090518;27;37165;-56
2022/07/07 01:39:03;;;;;;;10.20;3.17;;;16.70;99.90;;;;;;5092766;27;39538;-55
2022/07/07 01:41:31;;;;;;;6.07;2.70;;;16.70;99.90;;;;;;5092658;27;39126;-56
2022/07/07 01:43:59;;;;;;;11.50;2.90;;;16.70;99.90;;;;;;5093433;27;36955;-56
2022/07/07 01:46:26;;;;;;;8.13;2.60;;;16.70;99.90;;;;;;5093564;27;35286;-56
2022/07/07 01:48:54;;;;;;;13.15;2.95;;;16.80;99.90;;;;;;5093750;27;37537;-55
2022/07/07 01:51:21;;;;;;;9.55;2.60;;;16.80;99.90;;;;;;5092614;27;37384;-55
2022/07/07 01:53:48;;;;;;;8.40;2.65;;;16.70;99.90;;;;;;5092115;27;37476;-56
2022/07/07 01:56:16;;;;;;;9.68;2.95;;;16.80;99.90;;;;;;5092904;27;36551;-56
2022/07/07 01:58:44;;;;;;;10.27;3.05;;;16.70;99.90;;;;;;5093807;27;37461;-55
2022/07/07 02:01:12;;;;;;;9.18;2.72;;;16.70;99.90;;;;;;5092740;27;38579;-55
2022/07/07 02:03:39;;;;;;;10.95;3.47;;;16.70;99.90;;;;;;5093299;27;35636;-56
2022/07/07 02:06:07;;;;;;;8.35;3.45;;;16.70;99.90;;;;;;5094002;27;36338;-56
2022/07/07 02:08:35;;;;;;;7.88;2.72;;;16.80;99.90;;;;;;5091930;27;37744;-55
2022/07/07 02:13:49;;;;;;;16.52;3.78;;;16.80;99.90;;;;;;5096747;27;41337;-55
2022/07/07 02:16:18;;;;;;;9.75;2.60;;;16.70;99.90;;;;;;5096385;27;36848;-55
2022/07/07 02:18:46;;;;;;;13.23;3.10;;;16.70;99.90;;;;;;5095037;27;37512;-56
2022/07/07 02:21:14;;;;;;;10.35;3.10;;;16.70;99.90;;;;;;5096809;27;37640;-56
2022/07/07 02:23:44;;;;;;;12.20;2.58;;;16.70;99.90;;;;;;5096118;27;37603;-56
2022/07/07 02:26:11;;;;;;;14.90;2.55;;;16.70;99.90;;;;;;5096505;27;35496;-56
2022/07/07 02:28:39;;;;;;;12.57;3.20;;;16.70;99.90;;;;;;5095778;27;37989;-56
2022/07/07 02:31:09;;;;;;;10.60;2.33;;;16.80;99.90;;;;;;5094853;27;37556;-56
2022/07/07 02:33:36;;;;;;;8.65;2.10;;;16.70;99.90;;;;;;5096823;27;35858;-56
2022/07/07 02:36:05;;;;;;;13.98;2.67;;;16.70;99.90;;;;;;5094057;27;39545;-56
2022/07/07 02:38:33;;;;;;;10.98;2.63;;;16.70;99.90;;;;;;5096242;27;37911;-55
2022/07/07 02:41:01;;;;;;;10.57;2.05;;;16.70;99.90;;;;;;5095696;27;38251;-56
2022/07/07 02:43:28;;;;;;;10.43;2.88;;;16.70;99.90;;;;;;5096531;27;36989;-55
2022/07/07 02:45:55;;;;;;;10.90;2.45;;;16.70;99.90;;;;;;5096633;27;37236;-56
2022/07/07 02:48:27;;;;;;;6.85;1.73;;;16.70;99.90;;;;;;5095256;27;38118;-56
2022/07/07 02:50:55;;;;;;;8.63;2.65;;;16.70;99.90;;;;;;5092919;27;37885;-56
2022/07/07 02:53:22;;;;;;;7.50;1.80;;;16.70;99.90;;;;;;5094279;27;38059;-55
2022/07/07 02:55:49;;;;;;;6.93;1.85;;;16.70;99.90;;;;;;5095182;27;37956;-56
2022/07/07 02:58:19;;;;;;;8.98;2.03;;;16.70;99.90;;;;;;5096674;27;37387;-56
2022/07/07 03:00:48;;;;;;;9.48;1.85;;;16.70;99.90;;;;;;5095076;27;36345;-55
2022/07/07 03:03:15;;;;;;;8.93;1.90;;;16.70;99.90;;;;;;5094160;27;38887;-56
2022/07/07 03:05:44;;;;;;;8.93;2.10;;;16.70;99.90;;;;;;5093557;27;36637;-56
2022/07/07 03:08:11;;;;;;;7.32;1.63;;;16.70;99.90;;;;;;5095102;27;37762;-56
2022/07/07 03:10:39;;;;;;;11.52;2.15;;;16.60;99.90;;;;;;5093193;27;37748;-56
2022/07/07 03:13:06;;;;;;;10.88;2.38;;;16.60;99.90;;;;;;5095272;27;37225;-56
2022/07/07 03:15:34;;;;;;;6.88;1.80;;;16.60;99.90;;;;;;5095351;27;36472;-56
2022/07/07 03:18:01;;;;;;;11.25;2.67;;;16.70;99.90;;;;;;5094232;27;37694;-56
2022/07/07 03:20:28;;;;;;;10.80;1.92;;;16.60;99.90;;;;;;5094711;27;37461;-56
2022/07/07 03:22:57;;;;;;;11.00;2.45;;;16.60;99.90;;;;;;5093656;27;38260;-56
2022/07/07 03:25:24;;;;;;;8.88;2.13;;;16.70;99.90;;;;;;5095538;27;36581;-56
2022/07/07 03:27:52;;;;;;;8.93;2.00;;;16.60;99.90;;;;;;5094436;27;38689;-56
2022/07/07 03:30:19;;;;;;;9.38;2.30;;;16.60;99.90;;;;;;5094648;27;39056;-56
2022/07/07 03:32:47;;;;;;;10.38;2.17;;;16.60;99.90;;;;;;5094641;27;38911;-56
2022/07/07 03:35:14;;;;;;;9.18;1.70;;;16.60;99.90;;;;;;5095303;27;36478;-55
2022/07/07 03:37:41;;;;;;;10.52;1.63;;;16.60;99.90;;;;;;5095293;27;37024;-55
2022/07/07 03:40:12;;;;;;;11.85;1.73;;;16.60;99.90;;;;;;5094172;27;36434;-55
2022/07/07 03:42:39;;;;;;;9.07;1.52;;;16.50;99.90;;;;;;5095693;27;37250;-55
2022/07/07 03:45:08;;;;;;;7.13;2.00;;;16.50;99.90;;;;;;5095091;27;36924;-55
2022/07/07 03:47:35;;;;;;;7.57;1.20;;;16.50;99.90;;;;;;5094221;27;37866;-56
2022/07/07 03:50:02;;;;;;;8.48;1.77;;;16.50;99.90;;;;;;5094585;27;37859;-56
2022/07/07 03:52:30;;;;;;;8.00;1.67;;;16.50;99.90;;;;;;5095455;27;36172;-56
2022/07/07 03:54:57;;;;;;;8.25;1.50;;;16.50;99.90;;;;;;5093976;27;37903;-56
2022/07/07 03:57:26;;;;;;;9.23;1.70;;;16.50;99.90;;;;;;5095351;27;39108;-56
2022/07/07 03:59:53;;;;;;;10.90;1.63;;;16.50;99.90;;;;;;5094798;27;39664;-55
2022/07/07 04:02:20;;;;;;;7.07;1.75;;;16.40;99.90;;;;;;5092969;27;38343;-56
2022/07/07 04:04:48;;;;;;;10.68;1.88;;;16.40;99.90;;;;;;5094346;27;36568;-56
2022/07/07 04:07:15;;;;;;;8.38;2.17;;;16.40;99.90;;;;;;5094196;27;37483;-56
2022/07/07 04:09:42;;;;;;;9.02;2.15;;;16.40;99.90;;;;;;5092640;27;37213;-56
2022/07/07 04:12:10;;;;;;;6.15;1.33;;;16.30;99.90;;;;;;5094333;27;37266;-55
2022/07/07 04:14:39;;;;;;;13.75;2.58;;;16.30;99.90;;;;;;5095488;27;35575;-56
2022/07/07 04:17:06;;;;;;;10.07;2.28;;;16.30;99.90;;;;;;5094218;27;39186;-56
2022/07/07 04:19:34;;;;;;;9.82;2.65;;;16.30;99.90;;;;;;5094269;27;39027;-55
2022/07/07 04:22:01;;;;;;;8.63;1.63;;;16.30;99.90;;;;;;5094217;27;37228;-56
2022/07/07 04:24:28;;;;;;;11.05;2.28;;;16.20;99.90;;;;;;5092150;27;35390;-56
2022/07/07 04:26:55;;;;;;;9.10;2.00;;;16.20;99.90;;;;;;5095060;27;39217;-55
2022/07/07 04:29:23;;;;;;;10.15;2.00;;;16.20;99.90;;;;;;5094204;27;38662;-56
2022/07/07 04:31:51;;;;;;;6.80;1.55;;;16.20;99.90;;;;;;5094761;27;36004;-56
2022/07/07 04:34:21;;;;;;;10.38;2.17;;;16.20;99.90;;;;;;5092320;27;35214;-56
2022/07/07 04:36:48;;;;;;;6.30;1.90;;;16.20;99.90;;;;;;5094019;27;38348;-55
2022/07/07 04:39:15;;;;;;;9.05;1.75;;;16.10;99.90;;;;;;5093940;27;37719;-55
2022/07/07 04:41:43;;;;;;;9.60;1.40;;;16.10;99.90;;;;;;5093811;27;37980;-55
2022/07/07 04:44:10;;;;;;;9.00;2.55;;;16.10;99.90;;;;;;5094627;27;35306;-56
2022/07/07 04:46:37;;;;;;;13.32;2.88;;;16.20;99.90;;;;;;5093989;27;37664;-56
2022/07/07 04:49:06;;;;;;;10.68;1.42;;;16.20;99.90;;;;;;5093976;27;37807;-56
2022/07/07 04:51:33;;;;;;;8.13;1.70;;;16.10;99.90;;;;;;5092714;27;38544;-56
2022/07/07 04:54:00;;;;;;;9.70;1.35;;;16.10;99.90;;;;;;5092355;27;35161;-56
2022/07/07 04:56:28;;;;;;;4.55;1.13;;;16.10;99.90;;;;;;5092713;27;38480;-56
2022/07/07 04:58:55;;;;;;;6.75;1.30;;;16.10;99.90;;;;;;5093723;27;37691;-56
2022/07/07 05:01:22;;;;;;;8.07;1.58;;;16.10;99.90;;;;;;5093679;27;36786;-56
2022/07/07 05:03:50;;;;;;;9.57;1.65;;;16.10;99.90;;;;;;5093452;27;37162;-55
2022/07/07 05:06:19;;;;;;;9.80;1.80;;;16.10;99.90;;;;;;5092675;27;37705;-55
2022/07/07 05:08:46;;;;;;;8.25;1.73;;;16.10;99.90;;;;;;5092371;27;37973;-55
2022/07/07 05:11:13;;;;;;;9.35;1.58;;;16.10;99.90;;;;;;5092552;27;40029;-55
2022/07/07 05:13:41;;;;;;;12.68;2.13;;;16.10;99.90;;;;;;5094125;27;38216;-55
2022/07/07 05:16:09;;;;;;;8.73;1.45;;;16.00;99.90;;;;;;5092145;27;37656;-55
2022/07/07 05:18:36;;;;;;;9.95;1.60;;;16.10;99.90;;;;;;5092670;27;37565;-55
2022/07/07 05:21:03;;;;;;;8.73;1.67;;;16.10;99.90;;;;;;5091230;27;38064;-55
2022/07/07 05:23:32;;;;;;;7.72;1.77;;;16.10;99.90;;;;;;5091866;27;38183;-56
2022/07/07 05:26:00;;;;;;;9.35;2.25;;;16.10;99.90;;;;;;5092501;27;38013;-55
2022/07/07 05:28:27;;;;;;;19.85;3.33;;;16.10;99.90;;;;;;5094544;27;37527;-55
2022/07/07 05:30:54;;;;;;;16.17;2.55;;;16.10;99.90;;;;;;5092637;27;38140;-56
2022/07/07 05:33:22;;;;;;;10.27;2.00;;;16.00;99.90;;;;;;5092859;27;36535;-56
2022/07/07 05:35:49;;;;;;;11.75;2.08;;;16.10;99.90;;;;;;5092474;27;37123;-55
2022/07/07 05:38:17;;;;;;;9.25;2.10;;;16.10;99.90;;;;;;5093577;27;38479;-56
2022/07/07 05:40:45;;;;;;;7.80;1.70;;;16.10;99.90;;;;;;5093737;27;36312;-56
2022/07/07 05:43:13;;;;;;;8.90;1.50;;;16.10;99.90;;;;;;5092689;27;36280;-56
2022/07/07 05:45:40;;;;;;;12.43;2.80;;;16.10;99.90;;;;;;5093948;27;37167;-55
2022/07/07 05:48:07;;;;;;;11.40;2.42;;;16.10;99.90;;;;;;5091656;27;39699;-56
2022/07/07 05:50:34;;;;;;;18.50;2.83;;;16.10;99.90;;;;;;5091036;27;36213;-56
2022/07/07 05:53:02;;;;;;;12.35;2.20;;;16.20;99.90;;;;;;5093322;27;36903;-56
2022/07/07 05:55:29;;;;;;;8.98;1.85;;;16.40;99.90;;;;;;5092373;27;39088;-56
2022/07/07 05:57:58;;;;;;;12.40;2.10;;;16.60;99.90;;;;;;5092919;27;37571;-56
2022/07/07 06:00:27;;;;;;;9.07;1.58;;;16.60;99.90;;;;;;5092137;27;37648;-56
2022/07/07 06:02:54;;;;;;;10.45;2.15;;;16.70;99.90;;;;;;5092935;27;35396;-56
2022/07/07 06:05:22;;;;;;;13.95;3.05;;;16.80;99.90;;;;;;5092469;27;38465;-55
2022/07/07 06:07:50;;;;;;;9.40;2.30;;;17.00;99.90;;;;;;5084242;27;38334;-56
2022/07/07 06:10:17;;;;;;;12.02;2.58;;;17.30;99.90;;;;;;5087318;27;38147;-56
2022/07/07 06:12:45;;;;;;;11.73;2.33;;;17.50;99.90;;;;;;5083484;27;38830;-55
2022/07/07 06:15:14;;;;;;;13.85;2.30;;;17.50;99.90;;;;;;5087888;27;37434;-56
2022/07/07 06:17:41;;;;;;;11.07;2.10;;;17.40;99.90;;;;;;5087510;27;37327;-55
2022/07/07 06:20:10;;;;;;;9.65;2.15;;;17.30;99.90;;;;;;5086925;27;37573;-56
2022/07/07 06:22:37;;;;;;;7.32;1.60;;;17.20;99.90;;;;;;5086628;27;38501;-56
2022/07/07 06:25:07;;;;;;;7.95;1.55;;;17.10;99.90;;;;;;5087364;27;37785;-56
2022/07/07 06:27:35;;;;;;;6.05;1.40;;;17.10;99.90;;;;;;5087420;27;37993;-56
2022/07/07 06:30:03;;;;;;;4.20;1.00;;;17.00;99.90;;;;;;5087799;27;37424;-55
2022/07/07 06:32:32;;;;;;;7.10;1.48;;;17.10;99.90;;;;;;5087883;27;35421;-55
2022/07/07 06:34:59;;;;;;;10.02;1.27;;;17.20;99.90;;;;;;5087432;27;37657;-55
2022/07/07 06:37:27;;;;;;;7.38;1.10;;;17.40;99.90;;;;;;5087474;27;38820;-56
2022/07/07 06:39:54;;;;;;;8.63;1.15;;;17.50;99.90;;;;;;5087102;27;38667;-56
2022/07/07 06:42:21;;;;;;;5.88;1.00;;;17.50;99.90;;;;;;5087894;27;35613;-55
2022/07/07 06:44:48;;;;;;;6.72;1.55;;;17.50;99.90;;;;;;5088995;27;38263;-56
2022/07/07 06:47:16;;;;;;;7.68;1.60;;;17.40;99.90;;;;;;5086075;27;37765;-56
2022/07/07 06:49:45;;;;;;;8.88;1.25;;;17.30;99.90;;;;;;5086528;27;36317;-56
2022/07/07 06:52:12;;;;;;;3.00;0.60;;;17.20;99.90;;;;;;5086774;27;35423;-56
2022/07/07 06:54:40;;;;;;;1.80;0.45;;;17.00;99.90;;;;;;5086258;27;38899;-55
2022/07/07 06:57:08;;;;;;;4.40;1.08;;;16.90;99.90;;;;;;5086259;27;38654;-56
2022/07/07 06:59:36;;;;;;;6.25;0.82;;;16.90;99.90;;;;;;5087379;27;38260;-56
2022/07/07 07:02:04;;;;;;;9.07;0.95;;;16.90;99.90;;;;;;5091418;27;38301;-55
2022/07/07 07:04:32;;;;;;;8.40;0.98;;;17.10;99.90;;;;;;5091845;27;37466;-56
2022/07/07 07:07:01;;;;;;;7.20;1.10;;;17.30;99.90;;;;;;5091667;27;36573;-56
2022/07/07 07:09:28;;;;;;;5.97;1.42;;;17.30;99.90;;;;;;5090337;27;36181;-56
2022/07/07 07:11:55;;;;;;;13.55;1.95;;;17.20;99.90;;;;;;5092018;27;38272;-56
2022/07/07 07:14:23;;;;;;;4.53;1.20;;;17.20;99.90;;;;;;5092382;27;37591;-56
2022/07/07 07:16:50;;;;;;;3.55;0.60;;;17.10;99.90;;;;;;5091728;27;36676;-55
2022/07/07 07:19:18;;;;;;;4.68;0.70;;;17.20;99.90;;;;;;5092045;27;38379;-56
2022/07/07 07:21:45;;;;;;;3.25;0.70;;;17.20;99.90;;;;;;5090647;27;36460;-55
2022/07/07 07:24:14;;;;;;;7.13;1.00;;;17.30;99.90;;;;;;5090707;27;37127;-56
2022/07/07 07:26:41;;;;;;;4.50;1.20;;;17.40;99.90;;;;;;5091377;27;36622;-56
2022/07/07 07:29:09;;;;;;;4.70;0.85;;;17.30;99.90;;;;;;5091611;27;37356;-55
2022/07/07 07:31:36;;;;;;;3.20;0.90;;;17.30;99.90;;;;;;5091591;27;37909;-55
2022/07/07 07:34:03;;;;;;;4.35;1.17;;;17.30;99.90;;;;;;5089804;27;37397;-56
2022/07/07 07:36:31;;;;;;;5.32;1.20;;;17.20;99.90;;;;;;5090852;27;37608;-56
2022/07/07 07:38:58;;;;;;;4.65;0.80;;;17.20;99.90;;;;;;5089521;27;37806;-56
2022/07/07 07:41:27;;;;;;;4.05;0.93;;;17.10;99.90;;;;;;5091169;27;36728;-57
2022/07/07 07:43:54;;;;;;;5.32;0.93;;;17.10;99.90;;;;;;5090180;27;37151;-56
2022/07/07 07:46:21;;;;;;;7.35;1.23;;;17.00;99.90;;;;;;5089545;27;38916;-56
2022/07/07 07:48:48;;;;;;;8.40;1.40;;;17.10;99.90;;;;;;5090070;27;34985;-56
2022/07/07 07:51:16;;;;;;;6.35;1.17;;;17.30;99.90;;;;;;5089440;27;36709;-56
2022/07/07 07:53:43;;;;;;;4.97;1.20;;;17.40;99.90;;;;;;5087666;27;38492;-56
2022/07/07 07:56:11;;;;;;;6.10;0.95;;;17.50;99.90;;;;;;5090089;27;39024;-56
2022/07/07 07:58:40;;;;;;;8.85;1.00;;;17.50;99.90;;;;;;5089567;27;37472;-56
2022/07/07 08:01:07;;;;;;;6.43;1.02;;;17.60;99.90;;;;;;5089149;27;37168;-57
2022/07/07 08:03:35;;;;;;;8.27;1.30;;;17.70;99.90;;;;;;5089533;27;37343;-57
2022/07/07 08:06:03;;;;;;;7.43;0.90;;;17.60;99.90;;;;;;5088740;27;36555;-57
2022/07/07 08:08:30;;;;;;;5.25;0.93;;;17.60;99.90;;;;;;5088202;27;37330;-57
2022/07/07 08:10:57;;;;;;;5.97;1.38;;;17.60;99.90;;;;;;5088921;27;37238;-57
2022/07/07 08:13:25;;;;;;;9.70;1.65;;;17.60;99.90;;;;;;5090275;27;36237;-57
2022/07/07 08:15:53;;;;;;;15.32;1.92;;;17.50;99.90;;;;;;5088671;27;37153;-56
2022/07/07 08:18:21;;;;;;;11.05;1.90;;;17.50;99.90;;;;;;5089719;27;38043;-57
2022/07/07 08:20:48;;;;;;;8.80;1.85;;;17.40;99.90;;;;;;5089648;27;36424;-57
2022/07/07 08:23:16;;;;;;;8.13;1.95;;;17.50;99.90;;;;;;5087945;27;37172;-57
2022/07/07 08:25:43;;;;;;;13.23;1.73;;;17.60;99.90;;;;;;5085891;27;37620;-57
2022/07/07 08:28:10;;;;;;;8.25;1.55;;;17.60;99.90;;;;;;5087779;27;37653;-56
2022/07/07 08:30:38;;;;;;;6.25;1.65;;;17.60;99.90;;;;;;5087964;27;35192;-56
2022/07/07 08:33:07;;;;;;;7.25;1.42;;;17.60;99.90;;;;;;5086160;27;37718;-56
2022/07/07 08:35:34;;;;;;;9.45;2.45;;;17.60;99.90;;;;;;5087327;27;38263;-56
2022/07/07 08:38:01;;;;;;;9.60;2.25;;;17.60;99.90;;;;;;5086549;27;37416;-56
2022/07/07 08:40:29;;;;;;;8.95;2.17;;;17.70;99.90;;;;;;5087458;27;37167;-57
2022/07/07 08:42:56;;;;;;;12.15;1.75;;;17.80;99.90;;;;;;5087052;27;38695;-56
2022/07/07 08:45:24;;;;;;;7.93;1.67;;;17.90;99.90;;;;;;5087458;27;38913;-57
2022/07/07 08:47:52;;;;;;;7.50;2.10;;;17.90;99.90;;;;;;5087518;27;38191;-56
2022/07/07 08:50:20;;;;;;;5.45;1.52;;;18.00;99.90;;;;;;5087079;27;36575;-56
2022/07/07 08:52:52;;;;;;;10.57;1.83;;;18.00;99.90;;;;;;5086764;27;37333;-56
2022/07/07 08:55:22;;;;;;;9.38;1.98;;;18.10;99.90;;;;;;5085958;27;36742;-56
2022/07/07 08:57:51;;;;;;;7.03;2.00;;;18.10;99.90;;;;;;5088188;27;37572;-57
2022/07/07 09:00:18;;;;;;;9.27;1.58;;;18.10;99.90;;;;;;5087707;27;37524;-56
2022/07/07 09:02:46;;;;;;;7.10;1.25;;;18.00;99.90;;;;;;5088323;27;37669;-56
2022/07/07 09:05:14;;;;;;;9.85;1.90;;;17.80;99.90;;;;;;5088502;27;36366;-56
2022/07/07 09:07:47;;;;;;;6.85;1.70;;;17.70;99.90;;;;;;5085474;27;37548;-56
2022/07/07 09:10:28;;;;;;;6.40;1.25;;;17.60;99.90;;;;;;5086698;27;36739;-55
2022/07/07 09:12:56;;;;;;;6.45;1.45;;;17.60;99.90;;;;;;5085865;27;37285;-56
2022/07/07 09:15:24;;;;;;;6.18;1.50;;;17.60;99.90;;;;;;5085527;27;37765;-56
2022/07/07 09:17:52;;;;;;;7.20;1.13;;;17.80;99.90;;;;;;5086312;27;36033;-56
2022/07/07 09:20:20;;;;;;;5.32;1.08;;;17.90;99.90;;;;;;5087282;27;38929;-56
2022/07/07 09:22:51;;;;;;;8.40;1.75;;;17.90;99.90;;;;;;5084894;27;40092;-55
2022/07/07 09:25:19;;;;;;;3.72;0.95;;;18.00;99.90;;;;;;5087240;27;37628;-55
2022/07/07 09:27:55;;;;;;;6.47;1.55;;;18.00;99.90;;;;;;5087271;27;37817;-55
2022/07/07 09:30:34;;;;;;;7.07;1.60;;;18.00;99.90;;;;;;5088140;27;37131;-55
2022/07/07 09:33:05;;;;;;;5.15;1.13;;;18.10;99.90;;;;;;5088112;27;37476;-56
2022/07/07 09:38:23;;;;;;;6.78;1.02;;;17.90;99.90;;;;;;5085321;27;38829;-55
2022/07/07 09:40:58;;;;;;;5.35;1.13;;;17.70;99.90;;;;;;5086709;27;20056;-55
2022/07/07 09:43:25;;;;;;;7.72;1.20;;;17.60;99.90;;;;;;5086788;27;37740;-55
2022/07/07 09:46:16;;;;;;;6.47;1.45;;;17.60;99.90;;;;;;5087434;27;37663;-56
2022/07/07 09:48:46;;;;;;;7.43;1.38;;;17.60;99.90;;;;;;5087981;27;38775;-55
2022/07/07 09:51:21;;;;;;;9.75;1.00;;;17.60;99.90;;;;;;5086966;27;37469;-55
2022/07/07 09:53:55;;;;;;;6.13;1.20;;;17.50;99.90;;;;;;5087310;27;39056;-55
2022/07/07 09:56:24;;;;;;;6.85;1.30;;;17.50;99.90;;;;;;5087291;27;37096;-54
2022/07/07 09:58:52;;;;;;;9.20;1.40;;;17.50;99.90;;;;;;5087262;27;38319;-55
2022/07/07 10:01:24;;;;;;;10.57;1.88;;;17.40;99.90;;;;;;5086305;27;37529;-55
2022/07/07 10:03:55;;;;;;;9.48;1.50;;;17.30;99.90;;;;;;5087759;27;39133;-55
2022/07/07 10:06:23;;;;;;;7.45;1.73;;;17.30;99.90;;;;;;5086884;27;39569;-55
2022/07/07 10:08:58;;;;;;;8.65;1.63;;;17.30;99.90;;;;;;5087452;27;37328;-55
2022/07/07 10:11:35;;;;;;;9.50;1.67;;;17.30;99.90;;;;;;5087914;27;36959;-54
2022/07/07 10:14:11;;;;;;;15.45;3.55;;;17.30;99.90;;;;;;5087766;27;38322;-55
2022/07/07 10:16:39;;;;;;;11.30;2.20;;;17.30;99.90;;;;;;5088256;27;36512;-55
2022/07/07 10:19:09;;;;;;;13.85;2.72;;;17.20;99.90;;;;;;5088311;27;37779;-55
2022/07/07 10:21:37;;;;;;;10.73;2.45;;;17.10;99.90;;;;;;5088104;27;36409;-55
2022/07/07 10:24:09;;;;;;;12.70;1.75;;;17.10;99.90;;;;;;5088004;27;36462;-55
2022/07/07 10:26:38;;;;;;;8.85;1.63;;;17.00;99.90;;;;;;5087284;27;37699;-55
2022/07/07 10:29:06;;;;;;;17.98;2.80;;;17.00;99.90;;;;;;5086813;27;37533;-55
2022/07/07 10:31:34;;;;;;;10.25;1.65;;;16.90;99.90;;;;;;5085951;27;37156;-55
2022/07/07 10:34:03;;;;;;;10.77;2.42;;;16.90;99.90;;;;;;5091048;27;38986;-55
2022/07/07 10:37:01;;;;;;;15.02;3.50;;;16.90;99.90;;;;;;5091301;27;38632;-53
2022/07/07 10:39:34;;;;;;;14.13;2.25;;;17.00;99.90;;;;;;5091880;27;36401;-54
2022/07/07 10:42:08;;;;;;;11.23;2.35;;;17.00;99.90;;;;;;5090603;27;36707;-55
2022/07/07 10:44:37;;;;;;;20.55;3.05;;;17.00;99.90;;;;;;5091729;27;38848;-55
2022/07/07 10:47:26;;;;;;;16.48;3.35;;;17.00;99.90;;;;;;5088872;27;37973;-55
2022/07/07 10:49:56;;;;;;;11.32;2.33;;;17.00;99.90;;;;;;5090122;27;36973;-56
2022/07/07 10:52:25;;;;;;;11.68;2.40;;;17.00;99.90;;;;;;5091279;27;37496;-55
2022/07/07 10:54:54;;;;;;;12.98;2.47;;;17.00;99.90;;;;;;5090169;27;36386;-55
2022/07/07 10:57:23;;;;;;;16.30;2.88;;;17.00;99.90;;;;;;5091224;27;37774;-55
2022/07/07 11:00:18;;;;;;;13.18;2.50;;;17.00;99.90;;;;;;5090147;27;37260;-55
2022/07/07 11:02:49;;;;;;;19.58;2.90;;;17.00;99.90;;;;;;5039967;27;36850;-55
2022/07/07 11:05:32;;;;;;;16.25;3.35;;;17.10;99.90;;;;;;5090078;27;36709;-55
2022/07/07 11:08:08;;;;;;;12.70;2.80;;;17.00;99.90;;;;;;5089794;27;38658;-55
2022/07/07 11:10:54;;;;;;;15.80;2.65;;;17.00;99.90;;;;;;5089956;27;37339;-55
2022/07/07 11:13:29;;;;;;;18.70;3.10;;;16.90;99.90;;;;;;5090270;27;36657;-55
2022/07/07 11:16:11;;;;;;;13.23;2.50;;;16.90;99.90;;;;;;5089730;27;36211;-55
2022/07/07 11:18:39;;;;;;;10.35;1.98;;;16.90;99.90;;;;;;5088607;27;38608;-54
2022/07/07 11:21:08;;;;;;;11.43;2.13;;;17.00;99.90;;;;;;5090009;27;37350;-55
2022/07/07 11:23:45;;;;;;;10.70;2.10;;;17.00;99.90;;;;;;5089432;27;37752;-55
2022/07/07 11:26:16;;;;;;;14.50;1.92;;;16.90;99.90;;;;;;5089709;27;37432;-55
2022/07/07 11:28:43;;;;;;;9.32;1.77;;;17.00;99.90;;;;;;5088926;27;38885;-52
2022/07/07 11:31:11;;;;;;;9.80;1.95;;;17.00;99.90;;;;;;5086166;27;38129;-54
2022/07/07 11:33:39;;;;;;;11.02;2.10;;;17.00;99.90;;;;;;5086701;27;37679;-55
2022/07/07 11:36:14;;;;;;;8.75;1.52;;;17.10;99.90;;;;;;5088217;27;38297;-55
2022/07/07 11:38:42;;;;;;;13.32;2.30;;;17.10;99.90;;;;;;5086844;27;37971;-55
2022/07/07 11:41:09;;;;;;;11.43;2.30;;;17.20;99.90;;;;;;5084800;27;37467;-55
2022/07/07 11:43:37;;;;;;;15.18;2.30;;;17.20;99.90;;;;;;5087639;27;36339;-55
2022/07/07 11:46:05;;;;;;;11.13;2.88;;;17.30;99.90;;;;;;5086130;27;37879;-55
2022/07/07 11:48:38;;;;;;;9.30;1.95;;;17.30;99.90;;;;;;5087214;27;40370;-55
2022/07/07 11:51:06;;;;;;;11.20;2.05;;;17.30;99.80;;;;;;5087382;27;36202;-55
2022/07/07 11:53:36;;;;;;;13.18;2.28;;;17.40;99.90;;;;;;5088678;27;36970;-55
2022/07/07 11:56:04;;;;;;;13.00;2.60;;;17.40;99.90;;;;;;5087882;27;38242;-55
2022/07/07 11:58:31;;;;;;;11.20;1.90;;;17.40;99.90;;;;;;5082906;27;38664;-55
2022/07/07 12:00:59;;;;;;;9.55;2.25;;;17.40;99.90;;;;;;5087355;27;36148;-55
2022/07/07 12:03:32;;;;;;;13.80;2.20;;;17.40;99.90;;;;;;5087764;27;37831;-54
2022/07/07 12:06:00;;;;;;;13.90;2.80;;;17.50;99.90;;;;;;5085789;27;38388;-55
2022/07/07 12:08:37;;;;;;;10.55;2.72;;;17.50;99.90;;;;;;5086551;27;36532;-55
2022/07/07 12:11:05;;;;;;;14.52;2.53;;;17.40;99.90;;;;;;5087100;27;40664;-55
2022/07/07 12:13:34;;;;;;;16.30;3.80;;;17.40;99.90;;;;;;5087697;27;37377;-55
2022/07/07 12:16:04;;;;;;;15.38;2.40;;;17.30;99.90;;;;;;5086253;27;38547;-53
2022/07/07 12:18:37;;;;;;;14.60;2.80;;;17.30;99.90;;;;;;5088312;27;38655;-55
2022/07/07 12:21:07;;;;;;;11.98;2.63;;;17.30;99.90;;;;;;5086122;27;38770;-55
2022/07/07 12:23:41;;;;;;;15.30;2.72;;;17.40;99.90;;;;;;5086909;27;36874;-55
2022/07/07 12:26:10;;;;;;;12.02;2.08;;;17.40;99.90;;;;;;5086405;27;37637;-55
2022/07/07 12:28:38;;;;;;;14.18;2.63;;;17.40;99.90;;;;;;5085553;27;38735;-55
2022/07/07 12:31:06;;;;;;;11.70;2.55;;;17.50;99.90;;;;;;5087720;27;39011;-55
2022/07/07 12:33:35;;;;;;;10.88;2.50;;;17.50;99.80;;;;;;5089269;27;36152;-54
2022/07/07 12:36:13;;;;;;;12.00;2.45;;;17.60;99.60;;;;;;5089435;27;38246;-53
2022/07/07 12:38:45;;;;;;;12.85;2.42;;;17.60;99.20;;;;;;5087997;27;37921;-53
2022/07/07 12:41:28;;;;;;;9.30;2.13;;;17.60;99.20;;;;;;5087687;27;37486;-54
2022/07/07 12:43:57;;;;;;;9.60;2.25;;;17.70;99.20;;;;;;5088037;27;36548;-54
2022/07/07 12:46:33;;;;;;;9.35;2.20;;;17.70;99.10;;;;;;5087542;27;39188;-54
2022/07/07 12:49:01;;;;;;;8.90;2.25;;;17.60;98.80;;;;;;5087706;27;38378;-54
2022/07/07 12:51:29;;;;;;;13.48;2.70;;;17.60;98.90;;;;;;5087311;27;37486;-55
2022/07/07 12:53:59;;;;;;;9.38;2.20;;;17.50;99.00;;;;;;5089642;27;38448;-55
2022/07/07 12:56:32;;;;;;;10.73;2.30;;;17.40;99.00;;;;;;5083918;27;38191;-54